Hauptseite
METAR-TAF:

METAR-TAF

Flughäfen :

Princess Juliana International Airport

Sint Maarten, Niederländische Antillen

Breite: 18-03N, Länge: 063-07W, Höhe: 4 m

Beobachtung

Neuester Wetterbericht von vor 45 Minuten, um 02:00 UTC
Wind 6 kt aus Nordost
Temperatur 25°C
Luftfeuchtigkeit 65%
Luftdruck 1016 hPa
Sichtweite 10 km oder mehr
Leicht bewölkt in der Höhe von 2200 ft

METAR: TNCM 230200Z 04006KT 9999 FEW022 25/18 Q1016 RMK A3000

Zeit: 22:45 (02:45 UTC)

Prognose

Neuester Wetterbericht von vor 2 Stunden und 45 Minuten, um 00:00 UTC
Gültige Prognose vom 23 um 00 UTC bis 23 um 24 UTC
Wind 8 kt aus Nordost
Sichtweite: 10 km
Leicht bewölkt in der Höhe von 1800 ft
Aufgelockert bewölkt in der Höhe von 3000 ft
Ab 23 um 1400 UTC
Wind 12 kt aus Ost
Sichtweite: 10 km
Leicht bewölkt in der Höhe von 2500 ft

TAF: TNCM 230000Z 2300/2324 04008KT P6SM FEW018 SCT030 FM231400 10012KT P6SM FEW025

Wetterbeobachtungen und Prognosen von mehr als 4000 Flughäfen (METAR und TAF Bericht).

Die verfügbaren Stationen werden durch gelbe und rote Markierungen auf der Karte dargestellt.

Führen Sie die Maus auf sie, um den Namen der Station zu sehen.

Darauf klicken, um die Beobachtung von Wetterbeobachtungen und Prognosen zu sehen.

Um die Karte zu ändern : klicken Sie auf den grünen Tasten mit einem schwarzen Kreuz Zum Vergrößern, auf den grünen Button mit einem Gedankenstrich zu verkleinern, oder auf die grünen Pfeile für benachbarte Karten.


METAR-TAF: